sensor_id;sensor_type;location;lat;lon;timestamp;temperature;humidity
70107;DHT22;57473;37.508;15.080;2022-10-16T00:01:13;18.80;90.50
70107;DHT22;57473;37.508;15.080;2022-10-16T00:03:42;18.80;90.70
70107;DHT22;57473;37.508;15.080;2022-10-16T00:06:11;18.80;91.00
70107;DHT22;57473;37.508;15.080;2022-10-16T00:08:39;18.70;91.00
70107;DHT22;57473;37.508;15.080;2022-10-16T00:13:47;18.60;91.40
70107;DHT22;57473;37.508;15.080;2022-10-16T00:16:15;18.60;91.60
70107;DHT22;57473;37.508;15.080;2022-10-16T00:18:42;18.50;91.90
70107;DHT22;57473;37.508;15.080;2022-10-16T00:21:22;18.50;92.10
70107;DHT22;57473;37.508;15.080;2022-10-16T00:23:54;18.50;92.20
70107;DHT22;57473;37.508;15.080;2022-10-16T00:26:22;18.50;92.20
70107;DHT22;57473;37.508;15.080;2022-10-16T00:28:51;18.50;92.00
70107;DHT22;57473;37.508;15.080;2022-10-16T00:31:20;18.50;91.90
70107;DHT22;57473;37.508;15.080;2022-10-16T00:33:48;18.40;91.60
70107;DHT22;57473;37.508;15.080;2022-10-16T00:36:18;18.40;91.70
70107;DHT22;57473;37.508;15.080;2022-10-16T00:38:46;18.40;91.80
70107;DHT22;57473;37.508;15.080;2022-10-16T00:41:16;18.30;92.30
70107;DHT22;57473;37.508;15.080;2022-10-16T00:43:49;18.30;92.60
70107;DHT22;57473;37.508;15.080;2022-10-16T00:46:23;18.20;92.80
70107;DHT22;57473;37.508;15.080;2022-10-16T00:49:04;18.20;92.90
70107;DHT22;57473;37.508;15.080;2022-10-16T00:51:44;18.20;92.80
70107;DHT22;57473;37.508;15.080;2022-10-16T00:54:28;18.30;92.90
70107;DHT22;57473;37.508;15.080;2022-10-16T00:56:59;18.30;92.40
70107;DHT22;57473;37.508;15.080;2022-10-16T00:59:29;18.20;92.40
70107;DHT22;57473;37.508;15.080;2022-10-16T01:01:58;18.20;92.50
70107;DHT22;57473;37.508;15.080;2022-10-16T01:04:34;18.20;92.70
70107;DHT22;57473;37.508;15.080;2022-10-16T01:17:26;18.10;93.50
70107;DHT22;57473;37.508;15.080;2022-10-16T01:20:07;18.10;93.30
70107;DHT22;57473;37.508;15.080;2022-10-16T01:25:37;18.10;92.40
70107;DHT22;57473;37.508;15.080;2022-10-16T01:28:09;18.10;92.30
70107;DHT22;57473;37.508;15.080;2022-10-16T01:30:40;18.00;92.40
70107;DHT22;57473;37.508;15.080;2022-10-16T01:33:16;18.00;92.50
70107;DHT22;57473;37.508;15.080;2022-10-16T01:36:07;18.00;92.60
70107;DHT22;57473;37.508;15.080;2022-10-16T01:38:40;17.90;93.10
70107;DHT22;57473;37.508;15.080;2022-10-16T01:41:24;17.90;93.00
70107;DHT22;57473;37.508;15.080;2022-10-16T01:44:18;17.90;93.00
70107;DHT22;57473;37.508;15.080;2022-10-16T01:46:45;17.90;93.20
70107;DHT22;57473;37.508;15.080;2022-10-16T01:49:13;17.80;93.30
70107;DHT22;57473;37.508;15.080;2022-10-16T01:51:42;17.80;93.50
70107;DHT22;57473;37.508;15.080;2022-10-16T01:54:14;17.80;93.30
70107;DHT22;57473;37.508;15.080;2022-10-16T01:56:42;17.80;93.50
70107;DHT22;57473;37.508;15.080;2022-10-16T01:59:15;17.80;93.60
70107;DHT22;57473;37.508;15.080;2022-10-16T02:01:47;17.80;93.60
70107;DHT22;57473;37.508;15.080;2022-10-16T02:04:32;17.80;93.10
70107;DHT22;57473;37.508;15.080;2022-10-16T02:07:00;17.70;93.10
70107;DHT22;57473;37.508;15.080;2022-10-16T02:09:27;17.70;93.40
70107;DHT22;57473;37.508;15.080;2022-10-16T02:11:56;17.60;93.50
70107;DHT22;57473;37.508;15.080;2022-10-16T02:14:26;17.60;93.70
70107;DHT22;57473;37.508;15.080;2022-10-16T02:16:53;17.60;93.80
70107;DHT22;57473;37.508;15.080;2022-10-16T02:19:21;17.50;93.70
70107;DHT22;57473;37.508;15.080;2022-10-16T02:21:58;17.50;93.80
70107;DHT22;57473;37.508;15.080;2022-10-16T02:24:39;17.50;94.00
70107;DHT22;57473;37.508;15.080;2022-10-16T02:32:37;17.50;93.70
70107;DHT22;57473;37.508;15.080;2022-10-16T02:35:07;17.50;93.50
70107;DHT22;57473;37.508;15.080;2022-10-16T02:37:36;17.50;93.70
70107;DHT22;57473;37.508;15.080;2022-10-16T02:40:05;17.50;93.40
70107;DHT22;57473;37.508;15.080;2022-10-16T02:42:39;17.40;93.40
70107;DHT22;57473;37.508;15.080;2022-10-16T02:45:07;17.40;93.20
70107;DHT22;57473;37.508;15.080;2022-10-16T02:47:35;17.40;93.20
70107;DHT22;57473;37.508;15.080;2022-10-16T02:50:03;17.30;93.00
70107;DHT22;57473;37.508;15.080;2022-10-16T02:52:30;17.30;93.10
70107;DHT22;57473;37.508;15.080;2022-10-16T02:54:58;17.30;93.10
70107;DHT22;57473;37.508;15.080;2022-10-16T02:57:25;17.30;93.10
70107;DHT22;57473;37.508;15.080;2022-10-16T02:59:52;17.30;93.00
70107;DHT22;57473;37.508;15.080;2022-10-16T03:02:20;17.30;92.90
70107;DHT22;57473;37.508;15.080;2022-10-16T03:04:48;17.30;92.80
70107;DHT22;57473;37.508;15.080;2022-10-16T03:07:16;17.30;92.60
70107;DHT22;57473;37.508;15.080;2022-10-16T03:09:44;17.30;92.70
70107;DHT22;57473;37.508;15.080;2022-10-16T03:12:11;17.30;92.80
70107;DHT22;57473;37.508;15.080;2022-10-16T03:14:39;17.20;93.00
70107;DHT22;57473;37.508;15.080;2022-10-16T03:17:07;17.20;93.10
70107;DHT22;57473;37.508;15.080;2022-10-16T03:19:34;17.20;92.90
70107;DHT22;57473;37.508;15.080;2022-10-16T03:22:02;17.20;92.90
70107;DHT22;57473;37.508;15.080;2022-10-16T03:24:30;17.20;93.10
70107;DHT22;57473;37.508;15.080;2022-10-16T03:26:58;17.20;93.20
70107;DHT22;57473;37.508;15.080;2022-10-16T03:29:25;17.10;93.50
70107;DHT22;57473;37.508;15.080;2022-10-16T03:31:52;17.10;93.70
70107;DHT22;57473;37.508;15.080;2022-10-16T03:34:22;17.10;94.00
70107;DHT22;57473;37.508;15.080;2022-10-16T03:36:49;17.10;93.90
70107;DHT22;57473;37.508;15.080;2022-10-16T03:39:16;17.10;94.20
70107;DHT22;57473;37.508;15.080;2022-10-16T03:41:46;17.10;94.20
70107;DHT22;57473;37.508;15.080;2022-10-16T03:44:13;17.10;94.20
70107;DHT22;57473;37.508;15.080;2022-10-16T03:46:40;17.10;94.10
70107;DHT22;57473;37.508;15.080;2022-10-16T03:49:07;17.10;94.00
70107;DHT22;57473;37.508;15.080;2022-10-16T03:51:35;17.10;94.00
70107;DHT22;57473;37.508;15.080;2022-10-16T03:54:03;17.00;94.10
70107;DHT22;57473;37.508;15.080;2022-10-16T03:56:30;17.00;94.10
70107;DHT22;57473;37.508;15.080;2022-10-16T03:58:58;17.00;94.20
70107;DHT22;57473;37.508;15.080;2022-10-16T04:01:25;17.00;94.30
70107;DHT22;57473;37.508;15.080;2022-10-16T04:03:52;17.00;94.30
70107;DHT22;57473;37.508;15.080;2022-10-16T04:06:19;17.00;94.10
70107;DHT22;57473;37.508;15.080;2022-10-16T04:08:46;17.00;94.00
70107;DHT22;57473;37.508;15.080;2022-10-16T04:11:16;17.00;94.00
70107;DHT22;57473;37.508;15.080;2022-10-16T04:13:44;16.90;94.10
70107;DHT22;57473;37.508;15.080;2022-10-16T04:16:11;16.90;93.90
70107;DHT22;57473;37.508;15.080;2022-10-16T04:18:38;16.90;94.00
70107;DHT22;57473;37.508;15.080;2022-10-16T04:21:06;16.90;94.00
70107;DHT22;57473;37.508;15.080;2022-10-16T04:23:34;16.90;94.00
70107;DHT22;57473;37.508;15.080;2022-10-16T04:26:01;16.80;94.40
70107;DHT22;57473;37.508;15.080;2022-10-16T04:28:28;16.90;94.50
70107;DHT22;57473;37.508;15.080;2022-10-16T04:30:56;16.90;94.30
70107;DHT22;57473;37.508;15.080;2022-10-16T04:33:23;16.80;94.20
70107;DHT22;57473;37.508;15.080;2022-10-16T04:35:57;16.80;94.20
70107;DHT22;57473;37.508;15.080;2022-10-16T04:38:24;16.80;94.40
70107;DHT22;57473;37.508;15.080;2022-10-16T04:40:52;16.70;94.60
70107;DHT22;57473;37.508;15.080;2022-10-16T04:43:20;16.70;94.60
70107;DHT22;57473;37.508;15.080;2022-10-16T04:45:47;16.70;94.80
70107;DHT22;57473;37.508;15.080;2022-10-16T04:48:14;16.70;94.80
70107;DHT22;57473;37.508;15.080;2022-10-16T04:50:41;16.70;94.60
70107;DHT22;57473;37.508;15.080;2022-10-16T04:53:08;16.70;94.50
70107;DHT22;57473;37.508;15.080;2022-10-16T04:55:36;16.70;94.20
70107;DHT22;57473;37.508;15.080;2022-10-16T04:58:04;16.70;94.20
70107;DHT22;57473;37.508;15.080;2022-10-16T05:00:31;16.70;94.30
70107;DHT22;57473;37.508;15.080;2022-10-16T05:02:59;16.70;94.40
70107;DHT22;57473;37.508;15.080;2022-10-16T05:05:28;16.70;94.50
70107;DHT22;57473;37.508;15.080;2022-10-16T05:07:55;16.60;94.50
70107;DHT22;57473;37.508;15.080;2022-10-16T05:10:22;16.60;94.60
70107;DHT22;57473;37.508;15.080;2022-10-16T05:12:49;16.60;94.80
70107;DHT22;57473;37.508;15.080;2022-10-16T05:15:18;16.60;94.70
70107;DHT22;57473;37.508;15.080;2022-10-16T05:17:45;16.60;94.90
70107;DHT22;57473;37.508;15.080;2022-10-16T05:20:14;16.60;94.80
70107;DHT22;57473;37.508;15.080;2022-10-16T05:22:41;16.60;94.80
70107;DHT22;57473;37.508;15.080;2022-10-16T05:25:08;16.60;94.80
70107;DHT22;57473;37.508;15.080;2022-10-16T05:27:35;16.60;94.80
70107;DHT22;57473;37.508;15.080;2022-10-16T05:30:03;16.70;94.50
70107;DHT22;57473;37.508;15.080;2022-10-16T05:32:34;16.70;94.40
70107;DHT22;57473;37.508;15.080;2022-10-16T05:35:01;16.80;94.10
70107;DHT22;57473;37.508;15.080;2022-10-16T05:37:28;16.80;93.90
70107;DHT22;57473;37.508;15.080;2022-10-16T05:39:55;16.90;93.60
70107;DHT22;57473;37.508;15.080;2022-10-16T05:42:23;17.00;93.10
70107;DHT22;57473;37.508;15.080;2022-10-16T05:44:50;17.10;92.30
70107;DHT22;57473;37.508;15.080;2022-10-16T05:47:17;17.20;91.40
70107;DHT22;57473;37.508;15.080;2022-10-16T05:49:44;17.30;90.70
70107;DHT22;57473;37.508;15.080;2022-10-16T05:52:13;17.40;90.10
70107;DHT22;57473;37.508;15.080;2022-10-16T05:54:40;17.40;89.50
70107;DHT22;57473;37.508;15.080;2022-10-16T05:57:07;17.60;89.30
70107;DHT22;57473;37.508;15.080;2022-10-16T05:59:34;17.70;89.10
70107;DHT22;57473;37.508;15.080;2022-10-16T06:02:02;17.80;88.50
70107;DHT22;57473;37.508;15.080;2022-10-16T06:04:29;17.90;87.70
70107;DHT22;57473;37.508;15.080;2022-10-16T06:06:59;18.00;87.30
70107;DHT22;57473;37.508;15.080;2022-10-16T06:09:29;18.10;86.90
70107;DHT22;57473;37.508;15.080;2022-10-16T06:11:56;18.20;86.30
70107;DHT22;57473;37.508;15.080;2022-10-16T06:14:23;18.30;86.10
70107;DHT22;57473;37.508;15.080;2022-10-16T06:16:51;18.40;85.60
70107;DHT22;57473;37.508;15.080;2022-10-16T06:19:18;18.50;85.40
70107;DHT22;57473;37.508;15.080;2022-10-16T06:21:45;18.60;84.80
70107;DHT22;57473;37.508;15.080;2022-10-16T06:24:12;18.80;84.80
70107;DHT22;57473;37.508;15.080;2022-10-16T06:26:39;18.90;84.40
70107;DHT22;57473;37.508;15.080;2022-10-16T06:29:08;19.00;84.10
70107;DHT22;57473;37.508;15.080;2022-10-16T06:31:35;19.10;83.70
70107;DHT22;57473;37.508;15.080;2022-10-16T06:34:02;19.20;83.30
70107;DHT22;57473;37.508;15.080;2022-10-16T06:36:31;19.30;82.60
70107;DHT22;57473;37.508;15.080;2022-10-16T06:38:59;19.40;82.20
70107;DHT22;57473;37.508;15.080;2022-10-16T06:41:26;19.60;81.70
70107;DHT22;57473;37.508;15.080;2022-10-16T06:43:53;19.70;81.10
70107;DHT22;57473;37.508;15.080;2022-10-16T06:46:22;19.80;80.80
70107;DHT22;57473;37.508;15.080;2022-10-16T06:48:50;19.90;80.20
70107;DHT22;57473;37.508;15.080;2022-10-16T06:51:20;20.00;79.80
70107;DHT22;57473;37.508;15.080;2022-10-16T06:53:49;20.10;79.30
70107;DHT22;57473;37.508;15.080;2022-10-16T06:56:33;20.20;78.90
70107;DHT22;57473;37.508;15.080;2022-10-16T06:59:01;20.30;78.40
70107;DHT22;57473;37.508;15.080;2022-10-16T07:01:29;20.40;77.80
70107;DHT22;57473;37.508;15.080;2022-10-16T07:03:56;20.30;77.40
70107;DHT22;57473;37.508;15.080;2022-10-16T07:06:25;20.20;78.10
70107;DHT22;57473;37.508;15.080;2022-10-16T07:08:53;20.20;78.00
70107;DHT22;57473;37.508;15.080;2022-10-16T07:11:21;20.20;78.50
70107;DHT22;57473;37.508;15.080;2022-10-16T07:13:50;20.10;78.60
70107;DHT22;57473;37.508;15.080;2022-10-16T07:16:27;20.10;78.70
70107;DHT22;57473;37.508;15.080;2022-10-16T07:18:55;20.20;78.90
70107;DHT22;57473;37.508;15.080;2022-10-16T07:21:32;20.20;78.90
70107;DHT22;57473;37.508;15.080;2022-10-16T07:24:05;20.30;78.40
70107;DHT22;57473;37.508;15.080;2022-10-16T07:26:34;20.30;78.50
70107;DHT22;57473;37.508;15.080;2022-10-16T07:29:02;20.40;78.60
70107;DHT22;57473;37.508;15.080;2022-10-16T07:31:31;20.50;78.20
70107;DHT22;57473;37.508;15.080;2022-10-16T07:34:00;20.60;78.00
70107;DHT22;57473;37.508;15.080;2022-10-16T07:36:27;20.70;77.90
70107;DHT22;57473;37.508;15.080;2022-10-16T07:38:54;20.80;77.50
70107;DHT22;57473;37.508;15.080;2022-10-16T07:41:26;20.90;77.30
70107;DHT22;57473;37.508;15.080;2022-10-16T07:43:54;21.00;77.00
70107;DHT22;57473;37.508;15.080;2022-10-16T07:46:22;21.10;76.60
70107;DHT22;57473;37.508;15.080;2022-10-16T07:48:50;21.30;75.50
70107;DHT22;57473;37.508;15.080;2022-10-16T07:51:19;21.30;75.10
70107;DHT22;57473;37.508;15.080;2022-10-16T07:53:47;21.40;73.90
70107;DHT22;57473;37.508;15.080;2022-10-16T07:56:15;21.50;73.70
70107;DHT22;57473;37.508;15.080;2022-10-16T07:58:43;21.60;73.50
70107;DHT22;57473;37.508;15.080;2022-10-16T08:01:12;21.60;73.70
70107;DHT22;57473;37.508;15.080;2022-10-16T08:03:48;21.70;74.00
70107;DHT22;57473;37.508;15.080;2022-10-16T08:06:16;21.80;73.80
70107;DHT22;57473;37.508;15.080;2022-10-16T08:08:50;21.90;73.30
70107;DHT22;57473;37.508;15.080;2022-10-16T08:11:17;22.10;72.80
70107;DHT22;57473;37.508;15.080;2022-10-16T08:13:44;22.20;72.40
70107;DHT22;57473;37.508;15.080;2022-10-16T08:16:11;22.30;72.30
70107;DHT22;57473;37.508;15.080;2022-10-16T08:18:40;22.40;71.80
70107;DHT22;57473;37.508;15.080;2022-10-16T08:21:12;22.50;70.70
70107;DHT22;57473;37.508;15.080;2022-10-16T08:23:47;22.60;70.80
70107;DHT22;57473;37.508;15.080;2022-10-16T08:26:24;22.60;70.70
70107;DHT22;57473;37.508;15.080;2022-10-16T08:28:52;22.60;70.60
70107;DHT22;57473;37.508;15.080;2022-10-16T08:31:20;22.80;70.90
70107;DHT22;57473;37.508;15.080;2022-10-16T08:33:47;22.80;70.50
70107;DHT22;57473;37.508;15.080;2022-10-16T08:36:15;22.90;71.10
70107;DHT22;57473;37.508;15.080;2022-10-16T08:38:43;23.00;70.00
70107;DHT22;57473;37.508;15.080;2022-10-16T08:46:14;23.30;68.30
70107;DHT22;57473;37.508;15.080;2022-10-16T08:51:24;23.30;67.60
70107;DHT22;57473;37.508;15.080;2022-10-16T08:54:03;23.30;67.00
70107;DHT22;57473;37.508;15.080;2022-10-16T08:56:31;23.30;67.90
70107;DHT22;57473;37.508;15.080;2022-10-16T08:59:00;23.50;67.50
70107;DHT22;57473;37.508;15.080;2022-10-16T09:01:38;23.60;65.90
70107;DHT22;57473;37.508;15.080;2022-10-16T09:07:48;24.00;64.80
70107;DHT22;57473;37.508;15.080;2022-10-16T09:10:09;24.30;64.50
70107;DHT22;57473;37.508;15.080;2022-10-16T09:12:44;24.40;62.50
70107;DHT22;57473;37.508;15.080;2022-10-16T09:15:35;24.40;62.00
70107;DHT22;57473;37.508;15.080;2022-10-16T09:18:33;24.40;61.30
70107;DHT22;57473;37.508;15.080;2022-10-16T09:23:35;24.50;62.10
70107;DHT22;57473;37.508;15.080;2022-10-16T09:26:05;24.60;61.00
70107;DHT22;57473;37.508;15.080;2022-10-16T09:28:32;24.50;60.70
70107;DHT22;57473;37.508;15.080;2022-10-16T09:30:59;24.50;60.90
70107;DHT22;57473;37.508;15.080;2022-10-16T09:33:34;24.50;60.50
70107;DHT22;57473;37.508;15.080;2022-10-16T09:36:03;24.60;60.60
70107;DHT22;57473;37.508;15.080;2022-10-16T09:38:34;24.70;60.40
70107;DHT22;57473;37.508;15.080;2022-10-16T09:44:00;24.90;60.10
70107;DHT22;57473;37.508;15.080;2022-10-16T09:46:36;25.10;60.10
70107;DHT22;57473;37.508;15.080;2022-10-16T09:49:25;25.00;58.70
70107;DHT22;57473;37.508;15.080;2022-10-16T09:52:11;24.80;60.20
70107;DHT22;57473;37.508;15.080;2022-10-16T09:55:13;25.00;60.80
70107;DHT22;57473;37.508;15.080;2022-10-16T09:57:36;25.30;59.70
70107;DHT22;57473;37.508;15.080;2022-10-16T10:00:08;25.30;60.00
70107;DHT22;57473;37.508;15.080;2022-10-16T10:02:37;25.40;59.70
70107;DHT22;57473;37.508;15.080;2022-10-16T10:05:17;25.40;59.40
70107;DHT22;57473;37.508;15.080;2022-10-16T10:07:44;25.40;58.90
70107;DHT22;57473;37.508;15.080;2022-10-16T10:10:22;25.30;58.70
70107;DHT22;57473;37.508;15.080;2022-10-16T10:12:50;25.40;58.60
70107;DHT22;57473;37.508;15.080;2022-10-16T10:15:17;25.40;58.30
70107;DHT22;57473;37.508;15.080;2022-10-16T10:17:53;25.50;59.00
70107;DHT22;57473;37.508;15.080;2022-10-16T10:20:28;25.30;60.50
70107;DHT22;57473;37.508;15.080;2022-10-16T10:22:56;25.30;61.00
70107;DHT22;57473;37.508;15.080;2022-10-16T10:25:46;25.30;61.70
70107;DHT22;57473;37.508;15.080;2022-10-16T10:36:41;25.30;61.40
70107;DHT22;57473;37.508;15.080;2022-10-16T10:39:20;25.30;61.50
70107;DHT22;57473;37.508;15.080;2022-10-16T11:07:04;27.30;55.80
70107;DHT22;57473;37.508;15.080;2022-10-16T11:09:41;27.40;56.00
70107;DHT22;57473;37.508;15.080;2022-10-16T11:12:45;28.10;52.60
70107;DHT22;57473;37.508;15.080;2022-10-16T11:15:15;28.30;52.60
70107;DHT22;57473;37.508;15.080;2022-10-16T11:20:39;28.40;53.50
70107;DHT22;57473;37.508;15.080;2022-10-16T11:25:51;28.90;51.90
70107;DHT22;57473;37.508;15.080;2022-10-16T11:31:03;29.30;49.40
70107;DHT22;57473;37.508;15.080;2022-10-16T11:33:39;29.50;49.50
70107;DHT22;57473;37.508;15.080;2022-10-16T11:36:31;28.80;51.40
70107;DHT22;57473;37.508;15.080;2022-10-16T11:39:02;28.40;51.90
70107;DHT22;57473;37.508;15.080;2022-10-16T11:47:44;29.60;51.10
70107;DHT22;57473;37.508;15.080;2022-10-16T11:55:47;29.90;50.50
70107;DHT22;57473;37.508;15.080;2022-10-16T11:58:38;29.60;50.10
70107;DHT22;57473;37.508;15.080;2022-10-16T12:09:34;30.40;49.10
70107;DHT22;57473;37.508;15.080;2022-10-16T12:12:03;30.40;48.60
70107;DHT22;57473;37.508;15.080;2022-10-16T12:17:26;30.40;49.10
70107;DHT22;57473;37.508;15.080;2022-10-16T12:20:30;30.20;49.80
70107;DHT22;57473;37.508;15.080;2022-10-16T12:23:05;30.80;48.10
70107;DHT22;57473;37.508;15.080;2022-10-16T12:25:38;30.10;50.50
70107;DHT22;57473;37.508;15.080;2022-10-16T12:28:20;30.60;49.20
70107;DHT22;57473;37.508;15.080;2022-10-16T12:30:57;30.60;47.50
70107;DHT22;57473;37.508;15.080;2022-10-16T12:33:33;30.10;48.70
70107;DHT22;57473;37.508;15.080;2022-10-16T12:36:14;30.40;48.10
70107;DHT22;57473;37.508;15.080;2022-10-16T12:41:23;30.80;46.90
70107;DHT22;57473;37.508;15.080;2022-10-16T12:43:51;31.20;45.90
70107;DHT22;57473;37.508;15.080;2022-10-16T12:48:46;30.80;47.70
70107;DHT22;57473;37.508;15.080;2022-10-16T12:51:36;31.40;46.50
70107;DHT22;57473;37.508;15.080;2022-10-16T12:54:17;31.30;47.50
70107;DHT22;57473;37.508;15.080;2022-10-16T13:06:07;31.50;46.00
70107;DHT22;57473;37.508;15.080;2022-10-16T13:08:58;31.60;45.00
70107;DHT22;57473;37.508;15.080;2022-10-16T13:25:48;25.70;61.10
70107;DHT22;57473;37.508;15.080;2022-10-16T13:28:27;25.40;63.10
70107;DHT22;57473;37.508;15.080;2022-10-16T13:30:58;25.20;63.10
70107;DHT22;57473;37.508;15.080;2022-10-16T13:33:33;25.00;64.60
70107;DHT22;57473;37.508;15.080;2022-10-16T13:36:03;24.90;65.00
70107;DHT22;57473;37.508;15.080;2022-10-16T13:38:36;24.60;65.70
70107;DHT22;57473;37.508;15.080;2022-10-16T13:41:15;24.50;64.80
70107;DHT22;57473;37.508;15.080;2022-10-16T13:43:44;24.30;64.30
70107;DHT22;57473;37.508;15.080;2022-10-16T13:46:14;24.20;65.50
70107;DHT22;57473;37.508;15.080;2022-10-16T13:48:43;24.10;66.00
70107;DHT22;57473;37.508;15.080;2022-10-16T13:51:16;24.20;65.10
70107;DHT22;57473;37.508;15.080;2022-10-16T13:53:45;24.20;64.80
70107;DHT22;57473;37.508;15.080;2022-10-16T13:56:15;24.20;64.20
70107;DHT22;57473;37.508;15.080;2022-10-16T13:58:44;24.20;64.70
70107;DHT22;57473;37.508;15.080;2022-10-16T14:01:24;24.20;65.00
70107;DHT22;57473;37.508;15.080;2022-10-16T14:04:04;24.30;64.40
70107;DHT22;57473;37.508;15.080;2022-10-16T14:06:33;24.40;64.10
70107;DHT22;57473;37.508;15.080;2022-10-16T14:09:05;24.30;64.30
70107;DHT22;57473;37.508;15.080;2022-10-16T14:11:36;24.30;64.10
70107;DHT22;57473;37.508;15.080;2022-10-16T14:14:08;24.10;65.30
70107;DHT22;57473;37.508;15.080;2022-10-16T14:16:41;24.00;65.70
70107;DHT22;57473;37.508;15.080;2022-10-16T14:19:20;23.90;65.90
70107;DHT22;57473;37.508;15.080;2022-10-16T14:21:50;23.80;66.30
70107;DHT22;57473;37.508;15.080;2022-10-16T14:26:57;23.60;67.30
70107;DHT22;57473;37.508;15.080;2022-10-16T14:29:26;23.70;67.70
70107;DHT22;57473;37.508;15.080;2022-10-16T14:31:58;23.60;67.00
70107;DHT22;57473;37.508;15.080;2022-10-16T14:36:56;23.60;67.80
70107;DHT22;57473;37.508;15.080;2022-10-16T14:39:25;23.60;67.70
70107;DHT22;57473;37.508;15.080;2022-10-16T14:41:55;23.70;67.40
70107;DHT22;57473;37.508;15.080;2022-10-16T14:44:28;23.80;67.10
70107;DHT22;57473;37.508;15.080;2022-10-16T14:46:57;23.90;67.10
70107;DHT22;57473;37.508;15.080;2022-10-16T14:49:31;24.00;66.30
70107;DHT22;57473;37.508;15.080;2022-10-16T14:51:58;24.00;65.50
70107;DHT22;57473;37.508;15.080;2022-10-16T14:54:26;24.10;65.20
70107;DHT22;57473;37.508;15.080;2022-10-16T14:56:55;24.10;65.10
70107;DHT22;57473;37.508;15.080;2022-10-16T14:59:36;24.00;65.40
70107;DHT22;57473;37.508;15.080;2022-10-16T15:04:50;23.80;66.00
70107;DHT22;57473;37.508;15.080;2022-10-16T15:07:17;23.80;65.40
70107;DHT22;57473;37.508;15.080;2022-10-16T15:09:45;23.70;65.40
70107;DHT22;57473;37.508;15.080;2022-10-16T15:12:15;23.60;65.70
70107;DHT22;57473;37.508;15.080;2022-10-16T15:14:43;23.50;66.00
70107;DHT22;57473;37.508;15.080;2022-10-16T15:17:11;23.50;66.70
70107;DHT22;57473;37.508;15.080;2022-10-16T15:19:38;23.40;67.30
70107;DHT22;57473;37.508;15.080;2022-10-16T15:22:05;23.40;67.30
70107;DHT22;57473;37.508;15.080;2022-10-16T15:24:33;23.30;68.00
70107;DHT22;57473;37.508;15.080;2022-10-16T15:27:01;23.30;67.50
70107;DHT22;57473;37.508;15.080;2022-10-16T15:29:29;23.20;66.80
70107;DHT22;57473;37.508;15.080;2022-10-16T15:31:56;23.10;67.30
70107;DHT22;57473;37.508;15.080;2022-10-16T15:34:23;22.90;68.10
70107;DHT22;57473;37.508;15.080;2022-10-16T15:36:51;22.80;68.50
70107;DHT22;57473;37.508;15.080;2022-10-16T15:39:19;22.70;68.80
70107;DHT22;57473;37.508;15.080;2022-10-16T15:41:47;22.60;69.30
70107;DHT22;57473;37.508;15.080;2022-10-16T15:44:18;22.50;69.90
70107;DHT22;57473;37.508;15.080;2022-10-16T15:46:46;22.50;69.80
70107;DHT22;57473;37.508;15.080;2022-10-16T15:49:13;22.40;70.40
70107;DHT22;57473;37.508;15.080;2022-10-16T15:51:41;22.30;70.80
70107;DHT22;57473;37.508;15.080;2022-10-16T15:54:09;22.30;71.30
70107;DHT22;57473;37.508;15.080;2022-10-16T15:56:36;22.20;71.80
70107;DHT22;57473;37.508;15.080;2022-10-16T15:59:04;22.20;71.80
70107;DHT22;57473;37.508;15.080;2022-10-16T16:01:34;22.10;72.00
70107;DHT22;57473;37.508;15.080;2022-10-16T16:04:01;22.00;72.60
70107;DHT22;57473;37.508;15.080;2022-10-16T16:06:46;22.00;73.00
70107;DHT22;57473;37.508;15.080;2022-10-16T16:09:14;21.90;73.70
70107;DHT22;57473;37.508;15.080;2022-10-16T16:11:41;21.90;74.10
70107;DHT22;57473;37.508;15.080;2022-10-16T16:14:17;21.80;74.70
70107;DHT22;57473;37.508;15.080;2022-10-16T16:16:45;21.70;75.20
70107;DHT22;57473;37.508;15.080;2022-10-16T16:19:12;21.70;75.70
70107;DHT22;57473;37.508;15.080;2022-10-16T16:21:39;21.70;75.80
70107;DHT22;57473;37.508;15.080;2022-10-16T16:24:07;21.60;75.80
70107;DHT22;57473;37.508;15.080;2022-10-16T16:26:36;21.60;75.60
70107;DHT22;57473;37.508;15.080;2022-10-16T16:29:07;21.50;74.90
70107;DHT22;57473;37.508;15.080;2022-10-16T16:31:34;21.50;74.60
70107;DHT22;57473;37.508;15.080;2022-10-16T16:34:02;21.40;75.30
70107;DHT22;57473;37.508;15.080;2022-10-16T16:36:29;21.50;75.00
70107;DHT22;57473;37.508;15.080;2022-10-16T16:38:57;21.40;74.90
70107;DHT22;57473;37.508;15.080;2022-10-16T16:41:29;21.40;75.10
70107;DHT22;57473;37.508;15.080;2022-10-16T16:44:06;21.30;75.50
70107;DHT22;57473;37.508;15.080;2022-10-16T16:46:34;21.30;75.60
70107;DHT22;57473;37.508;15.080;2022-10-16T16:49:04;21.30;75.90
70107;DHT22;57473;37.508;15.080;2022-10-16T16:51:31;21.20;75.80
70107;DHT22;57473;37.508;15.080;2022-10-16T16:54:06;21.20;75.60
70107;DHT22;57473;37.508;15.080;2022-10-16T16:56:34;21.20;75.60
70107;DHT22;57473;37.508;15.080;2022-10-16T16:59:02;21.20;75.40
70107;DHT22;57473;37.508;15.080;2022-10-16T17:01:29;21.20;75.50
70107;DHT22;57473;37.508;15.080;2022-10-16T17:03:58;21.20;74.80
70107;DHT22;57473;37.508;15.080;2022-10-16T17:06:28;21.20;75.00
70107;DHT22;57473;37.508;15.080;2022-10-16T17:09:01;21.20;74.70
70107;DHT22;57473;37.508;15.080;2022-10-16T17:11:30;21.20;74.00
70107;DHT22;57473;37.508;15.080;2022-10-16T17:13:58;21.20;73.80
70107;DHT22;57473;37.508;15.080;2022-10-16T17:16:32;21.20;74.10
70107;DHT22;57473;37.508;15.080;2022-10-16T17:19:03;21.10;74.20
70107;DHT22;57473;37.508;15.080;2022-10-16T17:21:30;21.10;75.00
70107;DHT22;57473;37.508;15.080;2022-10-16T17:23:59;21.00;75.30
70107;DHT22;57473;37.508;15.080;2022-10-16T17:26:27;21.00;75.80
70107;DHT22;57473;37.508;15.080;2022-10-16T17:28:57;21.00;75.80
70107;DHT22;57473;37.508;15.080;2022-10-16T17:31:28;21.00;75.90
70107;DHT22;57473;37.508;15.080;2022-10-16T17:33:58;20.90;75.80
70107;DHT22;57473;37.508;15.080;2022-10-16T17:36:27;20.90;75.80
70107;DHT22;57473;37.508;15.080;2022-10-16T17:39:06;20.90;76.00
70107;DHT22;57473;37.508;15.080;2022-10-16T17:41:35;20.80;76.20
70107;DHT22;57473;37.508;15.080;2022-10-16T17:44:04;20.80;76.50
70107;DHT22;57473;37.508;15.080;2022-10-16T17:46:31;20.80;76.80
70107;DHT22;57473;37.508;15.080;2022-10-16T17:49:06;20.80;76.80
70107;DHT22;57473;37.508;15.080;2022-10-16T17:51:33;20.80;76.90
70107;DHT22;57473;37.508;15.080;2022-10-16T17:54:01;20.80;76.70
70107;DHT22;57473;37.508;15.080;2022-10-16T17:56:29;20.80;77.60